createdAt,value
2019-03-08T00:00:30.570Z,963.93
2019-03-08T00:01:30.540Z,963.93
2019-03-08T00:02:30.571Z,963.89
2019-03-08T00:03:30.534Z,963.90
2019-03-08T00:04:30.523Z,963.95
2019-03-08T00:05:30.547Z,963.87
2019-03-08T00:06:30.502Z,963.92
2019-03-08T00:07:30.488Z,963.92
2019-03-08T00:08:30.451Z,963.93
2019-03-08T00:09:30.519Z,964.04
2019-03-08T00:10:30.468Z,964.02
2019-03-08T00:11:30.481Z,964.04
2019-03-08T00:12:30.427Z,963.98
2019-03-08T00:13:30.431Z,964.06
2019-03-08T00:14:30.418Z,964.11
2019-03-08T00:15:30.433Z,964.07
2019-03-08T00:16:30.418Z,964.08
2019-03-08T00:17:30.430Z,964.05
2019-03-08T00:18:30.359Z,964.07
2019-03-08T00:19:30.881Z,964.11
2019-03-08T00:20:30.350Z,964.08
2019-03-08T00:21:30.336Z,964.02
2019-03-08T00:22:30.367Z,964.08
2019-03-08T00:23:30.325Z,964.05
2019-03-08T00:24:30.307Z,964.06
2019-03-08T00:25:30.304Z,964.01
2019-03-08T00:26:30.280Z,964.00
2019-03-08T00:27:30.294Z,964.11
2019-03-08T00:28:30.295Z,964.13
2019-03-08T00:29:30.274Z,964.08
2019-03-08T00:30:30.234Z,964.10
2019-03-08T00:31:30.272Z,964.12
2019-03-08T00:32:30.218Z,964.13
2019-03-08T00:33:30.238Z,964.09
2019-03-08T00:34:30.260Z,964.04
2019-03-08T00:35:30.191Z,964.15
2019-03-08T00:36:30.164Z,964.11
2019-03-08T00:37:30.196Z,964.16
2019-03-08T00:38:30.128Z,964.19
2019-03-08T00:39:30.165Z,964.20
2019-03-08T00:40:30.115Z,964.20
2019-03-08T00:41:30.131Z,964.23
2019-03-08T00:42:30.098Z,964.22
2019-03-08T00:43:30.119Z,964.20
2019-03-08T00:44:30.077Z,964.17
2019-03-08T00:45:30.080Z,964.18
2019-03-08T00:46:30.104Z,964.15
2019-03-08T00:47:30.043Z,964.13
2019-03-08T00:48:30.049Z,964.15
2019-03-08T00:49:29.954Z,964.15
2019-03-08T00:50:30.059Z,964.14
2019-03-08T00:51:30.010Z,964.09
2019-03-08T00:52:29.987Z,964.09
2019-03-08T00:53:29.994Z,964.18
2019-03-08T00:54:29.978Z,964.16
2019-03-08T00:55:30.010Z,964.20
2019-03-08T00:56:29.967Z,964.16
2019-03-08T00:57:29.945Z,964.16
2019-03-08T00:58:29.940Z,964.18
2019-03-08T00:59:29.919Z,964.19
2019-03-08T01:00:29.898Z,964.24
2019-03-08T01:01:29.957Z,964.27
2019-03-08T01:02:29.863Z,964.26
2019-03-08T01:03:29.860Z,964.22
2019-03-08T01:04:29.875Z,964.24
2019-03-08T01:05:30.276Z,964.25
2019-03-08T01:06:29.838Z,964.28
2019-03-08T01:07:29.883Z,964.26
2019-03-08T01:08:29.811Z,964.22
2019-03-08T01:09:29.842Z,964.20
2019-03-08T01:10:29.795Z,964.26
2019-03-08T01:11:29.811Z,964.26
2019-03-08T01:12:29.814Z,964.33
2019-03-08T01:13:29.802Z,964.21
2019-03-08T01:14:29.750Z,964.18
2019-03-08T01:15:29.739Z,964.15
2019-03-08T01:16:29.752Z,964.15
2019-03-08T01:17:29.699Z,964.06
2019-03-08T01:18:29.679Z,964.05
2019-03-08T01:19:29.668Z,964.02
2019-03-08T01:20:29.661Z,964.10
2019-03-08T01:21:29.646Z,964.05
2019-03-08T01:22:29.677Z,964.09
2019-03-08T01:23:29.639Z,964.12
2019-03-08T01:24:29.613Z,964.14
2019-03-08T01:25:29.637Z,964.12
2019-03-08T01:26:29.507Z,964.13
2019-03-08T01:27:29.494Z,964.21
2019-03-08T01:28:29.531Z,964.08
2019-03-08T01:29:29.564Z,964.10
2019-03-08T01:30:29.542Z,964.16
2019-03-08T01:31:29.524Z,964.17
2019-03-08T01:32:29.527Z,964.13
2019-03-08T01:33:29.521Z,964.13
2019-03-08T01:34:29.548Z,964.14
2019-03-08T01:35:29.498Z,964.15
2019-03-08T01:36:29.491Z,964.08
2019-03-08T01:37:29.467Z,964.10
2019-03-08T01:38:29.514Z,964.07
2019-03-08T01:39:29.504Z,964.05
2019-03-08T01:40:29.483Z,964.01
2019-03-08T01:41:29.465Z,964.01
2019-03-08T01:42:29.343Z,963.98
2019-03-08T01:43:29.403Z,964.04
2019-03-08T01:44:29.444Z,964.01
2019-03-08T01:45:29.431Z,963.99
2019-03-08T01:46:29.366Z,963.95
2019-03-08T01:47:29.367Z,964.00
2019-03-08T01:48:29.347Z,963.98
2019-03-08T01:49:29.337Z,963.93
2019-03-08T01:50:29.321Z,963.87
2019-03-08T01:51:29.370Z,963.91
2019-03-08T01:52:29.307Z,963.88
2019-03-08T01:53:29.294Z,963.84
2019-03-08T01:54:29.289Z,963.84
2019-03-08T01:55:29.296Z,963.83
2019-03-08T01:56:29.258Z,963.80
2019-03-08T01:57:29.285Z,963.72
2019-03-08T01:58:29.239Z,963.74
2019-03-08T01:59:29.230Z,963.68
2019-03-08T02:00:29.285Z,963.66
2019-03-08T02:01:29.203Z,963.69
2019-03-08T02:02:29.191Z,963.67
2019-03-08T02:03:29.221Z,963.71
2019-03-08T02:04:29.179Z,963.78
2019-03-08T02:05:29.151Z,963.65
2019-03-08T02:06:29.152Z,963.73
2019-03-08T02:07:29.137Z,963.79
2019-03-08T02:08:29.131Z,963.65
2019-03-08T02:09:29.156Z,963.69
2019-03-08T02:10:29.149Z,963.63
2019-03-08T02:11:29.129Z,963.60
2019-03-08T02:12:29.117Z,963.58
2019-03-08T02:13:29.103Z,963.63
2019-03-08T02:14:29.060Z,963.57
2019-03-08T02:15:29.446Z,963.55
2019-03-08T02:16:29.038Z,963.56
2019-03-08T02:17:29.029Z,963.61
2019-03-08T02:18:29.019Z,963.60
2019-03-08T02:19:29.011Z,963.60
2019-03-08T02:20:29.040Z,963.46
2019-03-08T02:21:29.045Z,963.53
2019-03-08T02:22:28.981Z,963.59
2019-03-08T02:23:28.972Z,963.48
2019-03-08T02:24:28.960Z,963.47
2019-03-08T02:25:28.980Z,963.45
2019-03-08T02:26:28.988Z,963.45
2019-03-08T02:27:29.029Z,963.40
2019-03-08T02:28:28.833Z,963.45
2019-03-08T02:29:28.918Z,963.42
2019-03-08T02:30:28.888Z,963.45
2019-03-08T02:31:28.883Z,963.49
2019-03-08T02:32:28.856Z,963.38
2019-03-08T02:33:28.898Z,963.43
2019-03-08T02:34:28.872Z,963.41
2019-03-08T02:35:28.850Z,963.38
2019-03-08T02:36:28.749Z,963.42
2019-03-08T02:37:28.837Z,963.43
2019-03-08T02:38:28.830Z,963.39
2019-03-08T02:39:29.451Z,963.41
2019-03-08T02:40:28.861Z,963.35
2019-03-08T02:41:28.781Z,963.33
2019-03-08T02:42:28.772Z,963.42
2019-03-08T02:43:28.764Z,963.35
2019-03-08T02:44:28.749Z,963.32
2019-03-08T02:45:28.740Z,963.33
2019-03-08T02:46:28.820Z,963.27
2019-03-08T02:47:28.762Z,963.27
2019-03-08T02:48:28.721Z,963.38
2019-03-08T02:49:28.691Z,963.35
2019-03-08T02:50:28.702Z,963.44
2019-03-08T02:51:28.656Z,963.38
2019-03-08T02:52:28.656Z,963.44
2019-03-08T02:53:28.719Z,963.40
2019-03-08T02:54:28.717Z,963.47
2019-03-08T02:55:28.636Z,963.40
2019-03-08T02:56:28.645Z,963.49
2019-03-08T02:57:28.617Z,963.49
2019-03-08T02:58:28.607Z,963.52
2019-03-08T02:59:28.617Z,963.46
2019-03-08T03:00:28.587Z,963.53
2019-03-08T03:01:28.566Z,963.55
2019-03-08T03:02:28.537Z,963.58
2019-03-08T03:03:28.573Z,963.51
2019-03-08T03:04:28.523Z,963.57
2019-03-08T03:05:28.630Z,963.56
2019-03-08T03:06:28.561Z,963.58
2019-03-08T03:07:28.521Z,963.54
2019-03-08T03:08:28.565Z,963.55
2019-03-08T03:09:28.509Z,963.59
2019-03-08T03:10:28.476Z,963.66
2019-03-08T03:11:28.572Z,963.65
2019-03-08T03:12:28.445Z,963.69
2019-03-08T03:13:28.478Z,963.62
2019-03-08T03:14:28.444Z,963.70
2019-03-08T03:15:28.433Z,963.73
2019-03-08T03:16:28.424Z,963.69
2019-03-08T03:17:28.427Z,963.75
2019-03-08T03:18:28.395Z,963.67
2019-03-08T03:19:28.373Z,963.65
2019-03-08T03:20:28.367Z,963.69
2019-03-08T03:21:28.372Z,963.69
2019-03-08T03:22:28.387Z,963.70
2019-03-08T03:23:28.380Z,963.68
2019-03-08T03:24:28.341Z,963.76
2019-03-08T03:25:28.298Z,963.59
2019-03-08T03:26:28.952Z,963.57
2019-03-08T03:27:28.272Z,963.53
2019-03-08T03:28:28.275Z,963.59
2019-03-08T03:29:28.336Z,963.56
2019-03-08T03:30:28.235Z,963.68
2019-03-08T03:31:28.217Z,963.62
2019-03-08T03:32:28.210Z,963.60
2019-03-08T03:33:28.191Z,963.64
2019-03-08T03:34:28.179Z,963.61
2019-03-08T03:35:28.212Z,963.68
2019-03-08T03:36:28.155Z,963.74
2019-03-08T03:37:28.157Z,963.79
2019-03-08T03:38:28.134Z,963.78
2019-03-08T03:39:28.129Z,963.81
2019-03-08T03:40:28.120Z,963.79
2019-03-08T03:41:28.143Z,963.70
2019-03-08T03:42:28.097Z,963.73
2019-03-08T03:43:28.087Z,963.75
2019-03-08T03:44:28.112Z,963.78
2019-03-08T03:45:28.060Z,963.74
2019-03-08T03:46:28.048Z,963.74
2019-03-08T03:47:28.544Z,963.74
2019-03-08T03:48:28.079Z,963.71
2019-03-08T03:49:28.057Z,963.73
2019-03-08T03:50:28.010Z,963.67
2019-03-08T03:51:28.017Z,963.73
2019-03-08T03:52:28.059Z,963.71
2019-03-08T03:53:28.014Z,963.74
2019-03-08T03:54:27.960Z,963.80
2019-03-08T03:55:27.948Z,963.77
2019-03-08T03:56:27.981Z,963.85
2019-03-08T03:57:27.998Z,963.78
2019-03-08T03:58:27.962Z,963.81
2019-03-08T03:59:28.050Z,963.87
2019-03-08T04:00:27.920Z,963.89
2019-03-08T04:01:27.988Z,963.90
2019-03-08T04:02:27.917Z,963.86
2019-03-08T04:03:27.880Z,963.92
2019-03-08T04:04:27.846Z,963.94
2019-03-08T04:05:27.878Z,964.09
2019-03-08T04:06:27.826Z,964.08
2019-03-08T04:07:27.816Z,964.09
2019-03-08T04:08:27.801Z,964.02
2019-03-08T04:09:27.796Z,964.10
2019-03-08T04:10:27.791Z,964.16
2019-03-08T04:11:27.813Z,964.17
2019-03-08T04:12:27.761Z,964.14
2019-03-08T04:13:27.745Z,964.16
2019-03-08T04:14:27.768Z,964.17
2019-03-08T04:15:27.757Z,964.22
2019-03-08T04:16:27.727Z,964.19
2019-03-08T04:17:27.786Z,964.30
2019-03-08T04:18:27.695Z,964.24
2019-03-08T04:19:27.685Z,964.21
2019-03-08T04:20:27.678Z,964.20
2019-03-08T04:21:27.759Z,964.13
2019-03-08T04:22:27.658Z,964.17
2019-03-08T04:23:27.691Z,964.14
2019-03-08T04:24:27.626Z,964.23
2019-03-08T04:25:27.636Z,964.23
2019-03-08T04:26:27.606Z,964.20
2019-03-08T04:27:27.630Z,964.23
2019-03-08T04:28:27.621Z,964.32
2019-03-08T04:29:27.629Z,964.30
2019-03-08T04:30:27.608Z,964.27
2019-03-08T04:31:27.571Z,964.27
2019-03-08T04:32:27.547Z,964.33
2019-03-08T04:33:27.531Z,964.42
2019-03-08T04:34:27.581Z,964.39
2019-03-08T04:35:27.616Z,964.35
2019-03-08T04:36:27.646Z,964.33
2019-03-08T04:37:27.497Z,964.38
2019-03-08T04:38:27.491Z,964.42
2019-03-08T04:39:27.511Z,964.34
2019-03-08T04:40:27.474Z,964.31
2019-03-08T04:41:27.487Z,964.31
2019-03-08T04:42:27.547Z,964.32
2019-03-08T04:43:27.441Z,964.31
2019-03-08T04:44:27.410Z,964.32
2019-03-08T04:45:27.409Z,964.30
2019-03-08T04:46:27.386Z,964.30
2019-03-08T04:47:27.428Z,964.28
2019-03-08T04:48:27.405Z,964.27
2019-03-08T04:49:27.387Z,964.28
2019-03-08T04:50:27.383Z,964.29
2019-03-08T04:51:27.350Z,964.30
2019-03-08T04:52:27.343Z,964.32
2019-03-08T04:53:27.377Z,964.29
2019-03-08T04:54:27.353Z,964.35
2019-03-08T04:55:27.308Z,964.32
2019-03-08T04:56:27.328Z,964.32
2019-03-08T04:57:27.312Z,964.29
2019-03-08T04:58:27.287Z,964.37
2019-03-08T04:59:27.302Z,964.30
2019-03-08T05:00:27.268Z,964.33
2019-03-08T05:01:27.265Z,964.35
2019-03-08T05:02:27.244Z,964.32
2019-03-08T05:03:27.222Z,964.28
2019-03-08T05:04:27.265Z,964.28
2019-03-08T05:05:27.219Z,964.34
2019-03-08T05:06:27.238Z,964.28
2019-03-08T05:07:27.161Z,964.35
2019-03-08T05:08:27.463Z,964.37
2019-03-08T05:09:27.913Z,964.32
2019-03-08T05:10:27.126Z,964.36
2019-03-08T05:11:27.113Z,964.36
2019-03-08T05:12:27.115Z,964.36
2019-03-08T05:13:27.151Z,964.41
2019-03-08T05:14:27.167Z,964.39
2019-03-08T05:15:27.110Z,964.40
2019-03-08T05:16:27.069Z,964.39
2019-03-08T05:17:27.093Z,964.41
2019-03-08T05:18:27.079Z,964.38
2019-03-08T05:19:27.042Z,964.42
2019-03-08T05:20:27.079Z,964.38
2019-03-08T05:21:27.039Z,964.38
2019-03-08T05:22:27.022Z,964.46
2019-03-08T05:23:26.988Z,964.48
2019-03-08T05:24:27.027Z,964.37
2019-03-08T05:25:26.978Z,964.38
2019-03-08T05:26:27.010Z,964.38
2019-03-08T05:27:26.958Z,964.38
2019-03-08T05:28:26.956Z,964.41
2019-03-08T05:29:26.934Z,964.42
2019-03-08T05:30:26.947Z,964.44
2019-03-08T05:31:26.951Z,964.45
2019-03-08T05:32:26.949Z,964.45
2019-03-08T05:33:26.893Z,964.47
2019-03-08T05:34:26.774Z,964.44
2019-03-08T05:35:26.885Z,964.46
2019-03-08T05:36:26.836Z,964.47
2019-03-08T05:37:26.831Z,964.48
2019-03-08T05:38:26.813Z,964.54
2019-03-08T05:39:26.810Z,964.52
2019-03-08T05:40:26.849Z,964.49
2019-03-08T05:41:26.822Z,964.52
2019-03-08T05:42:26.857Z,964.49
2019-03-08T05:43:26.817Z,964.50
2019-03-08T05:44:26.816Z,964.46
2019-03-08T05:45:26.660Z,964.54
2019-03-08T05:46:26.745Z,964.49
2019-03-08T05:47:26.758Z,964.58
2019-03-08T05:48:26.743Z,964.55
2019-03-08T05:49:26.621Z,964.60
2019-03-08T05:50:26.734Z,964.64
2019-03-08T05:51:26.693Z,964.66
2019-03-08T05:52:26.729Z,964.68
2019-03-08T05:53:26.664Z,964.66
2019-03-08T05:54:26.651Z,964.71
2019-03-08T05:55:26.662Z,964.64
2019-03-08T05:56:26.674Z,964.71
2019-03-08T05:57:26.627Z,964.67
2019-03-08T05:58:26.637Z,964.66
2019-03-08T05:59:26.602Z,964.73
2019-03-08T06:00:32.069Z,964.71
2019-03-08T06:01:27.602Z,964.72
2019-03-08T06:02:26.589Z,964.70
2019-03-08T06:03:26.591Z,964.76
2019-03-08T06:04:26.572Z,964.75
2019-03-08T06:05:26.558Z,964.76
2019-03-08T06:06:26.563Z,964.84
2019-03-08T06:07:26.555Z,964.76
2019-03-08T06:08:26.519Z,964.79
2019-03-08T06:09:26.505Z,964.78
2019-03-08T06:10:26.485Z,964.77
2019-03-08T06:11:26.469Z,964.83
2019-03-08T06:12:26.468Z,964.81
2019-03-08T06:13:26.488Z,964.86
2019-03-08T06:14:26.458Z,964.86
2019-03-08T06:15:26.434Z,964.83
2019-03-08T06:16:26.424Z,964.83
2019-03-08T06:17:26.421Z,964.80
2019-03-08T06:18:26.400Z,964.83
2019-03-08T06:19:26.431Z,964.83
2019-03-08T06:20:26.396Z,964.89
2019-03-08T06:21:26.370Z,964.96
2019-03-08T06:22:26.397Z,964.93
2019-03-08T06:23:26.355Z,964.91
2019-03-08T06:24:26.368Z,964.89
2019-03-08T06:25:26.363Z,964.87
2019-03-08T06:26:26.332Z,964.92
2019-03-08T06:27:26.306Z,964.90
2019-03-08T06:28:26.272Z,964.87
2019-03-08T06:29:26.284Z,964.89
2019-03-08T06:30:26.321Z,964.93
2019-03-08T06:31:26.280Z,964.98
2019-03-08T06:32:26.255Z,964.99
2019-03-08T06:33:26.263Z,965.06
2019-03-08T06:34:26.229Z,965.03
2019-03-08T06:35:26.236Z,965.05
2019-03-08T06:36:26.234Z,965.13
2019-03-08T06:37:26.199Z,965.14
2019-03-08T06:38:26.185Z,965.22
2019-03-08T06:39:26.197Z,965.24
2019-03-08T06:40:26.181Z,965.20
2019-03-08T06:41:26.195Z,965.28
2019-03-08T06:42:26.155Z,965.19
2019-03-08T06:43:26.119Z,965.22
2019-03-08T06:44:26.002Z,965.18
2019-03-08T06:45:25.990Z,965.20
2019-03-08T06:46:26.098Z,965.29
2019-03-08T06:47:26.021Z,965.27
2019-03-08T06:48:25.962Z,965.28
2019-03-08T06:49:25.958Z,965.28
2019-03-08T06:50:25.942Z,965.31
2019-03-08T06:51:26.016Z,965.34
2019-03-08T06:52:26.010Z,965.38
2019-03-08T06:53:26.266Z,965.39
2019-03-08T06:54:25.949Z,965.41
2019-03-08T06:55:25.986Z,965.46
2019-03-08T06:56:25.880Z,965.47
2019-03-08T06:57:25.865Z,965.48
2019-03-08T06:58:25.864Z,965.52
2019-03-08T06:59:25.965Z,965.53
2019-03-08T07:00:25.833Z,965.56
2019-03-08T07:01:25.823Z,965.62
2019-03-08T07:02:25.802Z,965.63
2019-03-08T07:03:25.886Z,965.59
2019-03-08T07:04:25.879Z,965.67
2019-03-08T07:05:25.803Z,965.72
2019-03-08T07:06:25.799Z,965.73
2019-03-08T07:07:25.837Z,965.72
2019-03-08T07:08:25.750Z,965.76
2019-03-08T07:09:25.725Z,965.79
2019-03-08T07:10:25.726Z,965.82
2019-03-08T07:11:25.769Z,965.80
2019-03-08T07:12:25.706Z,965.81
2019-03-08T07:13:25.691Z,965.83
2019-03-08T07:14:25.675Z,965.85
2019-03-08T07:15:25.723Z,965.79
2019-03-08T07:16:25.653Z,965.83
2019-03-08T07:17:25.684Z,965.84
2019-03-08T07:18:25.674Z,965.91
2019-03-08T07:19:25.634Z,965.97
2019-03-08T07:20:25.612Z,965.97
2019-03-08T07:21:25.612Z,965.98
2019-03-08T07:22:25.580Z,966.03
2019-03-08T07:23:28.129Z,965.99
2019-03-08T07:24:25.567Z,965.99
2019-03-08T07:25:25.561Z,965.99
2019-03-08T07:26:25.555Z,966.04
2019-03-08T07:27:25.535Z,966.02
2019-03-08T07:28:25.535Z,966.00
2019-03-08T07:29:25.579Z,966.01
2019-03-08T07:30:25.495Z,965.96
2019-03-08T07:31:25.505Z,965.98
2019-03-08T07:32:25.484Z,965.91
2019-03-08T07:33:25.780Z,965.94
2019-03-08T07:34:25.472Z,965.92
2019-03-08T07:35:25.601Z,965.97
2019-03-08T07:36:25.442Z,966.06
2019-03-08T07:37:25.450Z,966.03
2019-03-08T07:38:25.415Z,966.01
2019-03-08T07:39:25.409Z,966.15
2019-03-08T07:40:25.405Z,966.11
2019-03-08T07:41:25.517Z,966.01
2019-03-08T07:42:25.482Z,966.05
2019-03-08T07:43:25.352Z,966.00
2019-03-08T07:44:25.439Z,966.02
2019-03-08T07:45:25.342Z,966.08
2019-03-08T07:46:25.384Z,966.06
2019-03-08T07:47:25.367Z,966.08
2019-03-08T07:48:25.298Z,966.07
2019-03-08T07:49:25.298Z,966.09
2019-03-08T07:50:25.284Z,966.16
2019-03-08T07:51:25.282Z,966.11
2019-03-08T07:52:25.354Z,966.15
2019-03-08T07:53:25.284Z,966.22
2019-03-08T07:54:25.247Z,966.20
2019-03-08T07:55:25.238Z,966.16
2019-03-08T07:56:25.328Z,966.18
2019-03-08T07:57:25.295Z,966.14
2019-03-08T07:58:25.292Z,966.20
2019-03-08T07:59:25.328Z,966.17
2019-03-08T08:00:25.281Z,966.19
2019-03-08T08:01:25.272Z,966.21
2019-03-08T08:02:25.141Z,966.23
2019-03-08T08:03:25.250Z,966.23
2019-03-08T08:04:25.245Z,966.29
2019-03-08T08:05:25.162Z,966.30
2019-03-08T08:06:25.212Z,966.28
2019-03-08T08:07:25.199Z,966.32
2019-03-08T08:08:25.177Z,966.35
2019-03-08T08:09:25.080Z,966.27
2019-03-08T08:10:25.059Z,966.31
2019-03-08T08:11:25.194Z,966.28
2019-03-08T08:12:25.077Z,966.28
2019-03-08T08:13:25.154Z,966.26
2019-03-08T08:14:25.015Z,966.35
2019-03-08T08:15:25.026Z,966.39
2019-03-08T08:16:25.007Z,966.40
2019-03-08T08:17:24.987Z,966.44
2019-03-08T08:18:25.016Z,966.49
2019-03-08T08:19:24.955Z,966.50
2019-03-08T08:20:25.053Z,966.49
2019-03-08T08:21:24.944Z,966.49
2019-03-08T08:22:24.947Z,966.50
2019-03-08T08:23:33.823Z,966.45
2019-03-08T08:24:25.931Z,966.51
2019-03-08T08:25:24.911Z,966.52
2019-03-08T08:26:25.010Z,966.52
2019-03-08T08:27:24.888Z,966.52
2019-03-08T08:28:24.976Z,966.50
2019-03-08T08:29:24.983Z,966.56
2019-03-08T08:30:24.946Z,966.60
2019-03-08T08:31:25.228Z,966.57
2019-03-08T08:32:24.947Z,966.66
2019-03-08T08:33:24.911Z,966.70
2019-03-08T08:34:24.941Z,966.72
2019-03-08T08:35:24.790Z,966.66
2019-03-08T08:36:24.869Z,966.65
2019-03-08T08:37:24.868Z,966.65
2019-03-08T08:38:24.851Z,966.69
2019-03-08T08:39:24.926Z,966.71
2019-03-08T08:40:24.846Z,966.79
2019-03-08T08:41:24.847Z,966.83
2019-03-08T08:42:24.825Z,966.83
2019-03-08T08:43:24.698Z,966.78
2019-03-08T08:44:24.693Z,966.80
2019-03-08T08:45:24.664Z,966.81
2019-03-08T08:46:24.839Z,966.84
2019-03-08T08:47:24.647Z,966.84
2019-03-08T08:48:24.667Z,966.84
2019-03-08T08:49:24.741Z,966.87
2019-03-08T08:50:24.729Z,966.85
2019-03-08T08:51:24.745Z,966.95
2019-03-08T08:52:24.746Z,966.89
2019-03-08T08:53:26.123Z,966.85
2019-03-08T08:54:24.582Z,966.91
2019-03-08T08:55:24.555Z,966.91
2019-03-08T08:56:24.547Z,966.87
2019-03-08T08:57:24.656Z,966.87
2019-03-08T08:58:24.666Z,966.84
2019-03-08T08:59:24.532Z,966.90
2019-03-08T09:00:24.511Z,966.97
2019-03-08T09:01:24.484Z,966.98
2019-03-08T09:02:24.481Z,966.95
2019-03-08T09:03:24.612Z,967.03
2019-03-08T09:04:24.474Z,966.94
2019-03-08T09:05:24.454Z,967.02
2019-03-08T09:06:24.491Z,966.94
2019-03-08T09:07:24.443Z,966.88
2019-03-08T09:08:24.438Z,966.94
2019-03-08T09:09:24.523Z,967.01
2019-03-08T09:10:24.397Z,967.08
2019-03-08T09:11:24.380Z,967.02
2019-03-08T09:12:24.393Z,967.05
2019-03-08T09:13:24.366Z,966.99
2019-03-08T09:14:24.593Z,966.98
2019-03-08T09:15:24.418Z,966.95
2019-03-08T09:16:24.332Z,966.96
2019-03-08T09:17:24.325Z,966.97
2019-03-08T09:18:24.426Z,967.01
2019-03-08T09:19:24.421Z,967.02
2019-03-08T09:20:25.020Z,967.09
2019-03-08T09:21:24.374Z,967.13
2019-03-08T09:22:24.262Z,967.14
2019-03-08T09:23:24.375Z,967.13
2019-03-08T09:24:24.247Z,967.13
2019-03-08T09:25:24.361Z,967.12
2019-03-08T09:26:24.383Z,967.13
2019-03-08T09:27:24.231Z,967.14
2019-03-08T09:28:24.332Z,967.11
2019-03-08T09:29:24.965Z,967.09
2019-03-08T09:30:24.265Z,967.15
2019-03-08T09:31:25.122Z,967.12
2019-03-08T09:32:24.300Z,967.15
2019-03-08T09:33:24.250Z,967.17
2019-03-08T09:34:24.243Z,967.17
2019-03-08T09:35:24.207Z,967.23
2019-03-08T09:36:24.274Z,967.23
2019-03-08T09:37:24.192Z,967.27
2019-03-08T09:38:24.213Z,967.26
2019-03-08T09:39:24.224Z,967.23
2019-03-08T09:40:24.167Z,967.25
2019-03-08T09:41:24.184Z,967.29
2019-03-08T09:42:24.145Z,967.25
2019-03-08T09:43:24.121Z,967.26
2019-03-08T09:44:24.020Z,967.28
2019-03-08T09:45:23.992Z,967.36
2019-03-08T09:46:23.983Z,967.32
2019-03-08T09:47:24.007Z,967.27
2019-03-08T09:48:23.967Z,967.28
2019-03-08T09:49:23.951Z,967.28
2019-03-08T09:50:23.933Z,967.33
2019-03-08T09:51:23.921Z,967.31
2019-03-08T09:52:23.925Z,967.36
2019-03-08T09:53:24.397Z,967.35
2019-03-08T09:54:23.898Z,967.34
2019-03-08T09:55:23.895Z,967.40
2019-03-08T09:56:23.992Z,967.44
2019-03-08T09:57:23.869Z,967.49
2019-03-08T09:58:24.021Z,967.46
2019-03-08T09:59:23.844Z,967.55
2019-03-08T10:00:23.840Z,967.50
2019-03-08T10:01:23.824Z,967.49
2019-03-08T10:02:23.801Z,967.53
2019-03-08T10:03:23.835Z,967.52
2019-03-08T10:04:23.933Z,967.54
2019-03-08T10:05:23.894Z,967.54
2019-03-08T10:06:23.873Z,967.56
2019-03-08T10:07:23.872Z,967.61
2019-03-08T10:08:23.843Z,967.59
2019-03-08T10:09:23.852Z,967.64
2019-03-08T10:10:23.845Z,967.67
2019-03-08T10:11:23.833Z,967.65
2019-03-08T10:12:23.816Z,967.65
2019-03-08T10:13:23.763Z,967.71
2019-03-08T10:14:25.252Z,967.64
2019-03-08T10:15:23.804Z,967.68
2019-03-08T10:16:23.748Z,967.66
2019-03-08T10:17:23.746Z,967.60
2019-03-08T10:18:23.742Z,967.61
2019-03-08T10:19:23.720Z,967.57
2019-03-08T10:20:23.730Z,967.60
2019-03-08T10:21:23.735Z,967.64
2019-03-08T10:22:23.695Z,967.66
2019-03-08T10:23:23.679Z,967.66
2019-03-08T10:24:23.673Z,967.55
2019-03-08T10:25:23.686Z,967.56
2019-03-08T10:26:23.718Z,967.56
2019-03-08T10:27:23.651Z,967.56
2019-03-08T10:28:23.613Z,967.51
2019-03-08T10:29:23.606Z,967.59
2019-03-08T10:30:23.601Z,967.57
2019-03-08T10:31:23.585Z,967.50
2019-03-08T10:32:23.676Z,967.49
2019-03-08T10:33:23.571Z,967.60
2019-03-08T10:34:23.611Z,967.58
2019-03-08T10:35:24.235Z,967.46
2019-03-08T10:36:23.530Z,967.51
2019-03-08T10:37:23.580Z,967.53
2019-03-08T10:38:23.514Z,967.53
2019-03-08T10:39:23.552Z,967.57
2019-03-08T10:40:23.498Z,967.62
2019-03-08T10:41:23.474Z,967.61
2019-03-08T10:42:23.527Z,967.60
2019-03-08T10:43:23.503Z,967.63
2019-03-08T10:44:23.460Z,967.65
2019-03-08T10:45:23.453Z,967.61
2019-03-08T10:46:23.440Z,967.62
2019-03-08T10:47:23.409Z,967.71
2019-03-08T10:48:23.438Z,967.65
2019-03-08T10:49:23.414Z,967.68
2019-03-08T10:50:23.434Z,967.75
2019-03-08T10:51:23.373Z,967.71
2019-03-08T10:52:23.356Z,967.79
2019-03-08T10:53:23.388Z,967.82
2019-03-08T10:54:23.365Z,967.78
2019-03-08T10:55:23.330Z,967.82
2019-03-08T10:56:23.313Z,967.87
2019-03-08T10:57:23.305Z,967.82
2019-03-08T10:58:23.312Z,967.75
2019-03-08T10:59:23.322Z,967.73
2019-03-08T11:00:23.241Z,967.84
2019-03-08T11:01:23.276Z,967.87
2019-03-08T11:02:23.248Z,967.90
2019-03-08T11:03:23.254Z,967.86
2019-03-08T11:04:23.237Z,967.90
2019-03-08T11:05:23.243Z,967.86
2019-03-08T11:06:23.239Z,967.90
2019-03-08T11:07:23.227Z,967.91
2019-03-08T11:08:29.509Z,967.91
2019-03-08T11:09:24.191Z,967.91
2019-03-08T11:10:23.175Z,967.89
2019-03-08T11:11:23.183Z,967.96
2019-03-08T11:12:23.160Z,967.93
2019-03-08T11:13:23.121Z,967.92
2019-03-08T11:14:23.170Z,967.96
2019-03-08T11:15:24.657Z,967.95
2019-03-08T11:16:24.969Z,967.94
2019-03-08T11:17:23.078Z,967.95
2019-03-08T11:18:23.083Z,967.99
2019-03-08T11:19:23.043Z,968.00
2019-03-08T11:20:22.925Z,968.00
2019-03-08T11:21:23.064Z,968.02
2019-03-08T11:22:23.090Z,967.91
2019-03-08T11:23:23.002Z,968.00
2019-03-08T11:24:23.014Z,967.99
2019-03-08T11:25:22.883Z,967.93
2019-03-08T11:26:22.986Z,967.91
2019-03-08T11:27:23.032Z,967.91
2019-03-08T11:28:22.842Z,967.92
2019-03-08T11:29:22.822Z,967.93
2019-03-08T11:30:22.826Z,967.97
2019-03-08T11:31:22.805Z,967.98
2019-03-08T11:32:23.494Z,968.04
2019-03-08T11:33:22.845Z,967.96
2019-03-08T11:34:22.792Z,968.03
2019-03-08T11:35:22.766Z,967.97
2019-03-08T11:36:22.806Z,968.05
2019-03-08T11:37:22.739Z,968.04
2019-03-08T11:38:22.868Z,968.05
2019-03-08T11:39:22.737Z,967.99
2019-03-08T11:40:22.705Z,968.09
2019-03-08T11:41:22.706Z,968.06
2019-03-08T11:42:22.704Z,968.01
2019-03-08T11:43:22.713Z,968.00
2019-03-08T11:44:22.664Z,968.01
2019-03-08T11:45:22.676Z,967.97
2019-03-08T11:46:22.648Z,968.05
2019-03-08T11:47:22.677Z,967.99
2019-03-08T11:48:22.640Z,967.99
2019-03-08T11:49:22.654Z,967.99
2019-03-08T11:50:22.606Z,968.03
2019-03-08T11:51:22.586Z,968.05
2019-03-08T11:52:22.591Z,968.02
2019-03-08T11:53:22.565Z,968.01
2019-03-08T11:54:22.686Z,967.95
2019-03-08T11:55:22.624Z,967.94
2019-03-08T11:56:22.573Z,967.97
2019-03-08T11:57:22.526Z,967.98
2019-03-08T11:58:22.525Z,968.00
2019-03-08T11:59:22.521Z,967.97
2019-03-08T12:00:22.486Z,967.97
2019-03-08T12:01:22.505Z,968.09
2019-03-08T12:02:22.515Z,968.00
2019-03-08T12:03:22.465Z,968.05
2019-03-08T12:04:22.445Z,968.08
2019-03-08T12:05:23.153Z,968.08
2019-03-08T12:06:22.403Z,968.05
2019-03-08T12:07:22.535Z,968.09
2019-03-08T12:08:22.861Z,968.09
2019-03-08T12:09:22.375Z,968.11
2019-03-08T12:10:22.386Z,968.05
2019-03-08T12:11:22.370Z,968.09
2019-03-08T12:12:22.371Z,968.11
2019-03-08T12:13:22.394Z,968.10
2019-03-08T12:14:22.325Z,968.12
2019-03-08T12:15:22.434Z,968.16
2019-03-08T12:16:22.331Z,968.19
2019-03-08T12:17:22.305Z,968.12
2019-03-08T12:18:22.298Z,968.17
2019-03-08T12:19:22.306Z,968.13
2019-03-08T12:20:22.316Z,968.18
2019-03-08T12:21:22.272Z,968.16
2019-03-08T12:22:22.253Z,968.18
2019-03-08T12:23:22.266Z,968.21
2019-03-08T12:24:22.320Z,968.20
2019-03-08T12:25:22.208Z,968.20
2019-03-08T12:26:22.278Z,968.12
2019-03-08T12:27:22.191Z,968.21
2019-03-08T12:28:22.332Z,968.21